Time;durP1;ratioP1;P1;durP2;ratioP2;P2;SDS_P1;SDS_P2;PMS_P1;PMS_P2;Temp;Humidity;BMP_temperature;BMP_pressure;BME280_temperature;BME280_humidity;BME280_pressure;Samples;Min_cycle;Max_cycle;Signal;HPM_P1;HPM_P2
2021/04/19 00:03:27;;;;;;;31.10;20.38;;;;;;;5.81;78.35;100192.70;234661;1174;117241;-66
2021/04/19 00:08:32;;;;;;;29.40;18.43;;;;;;;5.90;78.44;100176.50;234067;1174;116971;-66
2021/04/19 00:13:37;;;;;;;24.95;17.95;;;;;;;5.94;78.15;100182.22;233463;1174;116155;-66
2021/04/19 00:18:41;;;;;;;26.50;16.00;;;;;;;5.85;78.27;100178.05;233376;1176;115483;-66
2021/04/19 00:23:46;;;;;;;38.93;22.50;;;;;;;5.87;78.81;100178.67;233432;1175;115400;-66
2021/04/19 00:28:50;;;;;;;35.17;19.40;;;;;;;5.99;79.46;100166.59;233656;1176;115985;-66
2021/04/19 00:33:54;;;;;;;35.65;20.45;;;;;;;6.12;78.99;100158.70;232645;1171;116103;-67
2021/04/19 00:38:58;;;;;;;36.45;21.25;;;;;;;6.18;79.41;100157.93;232692;1174;116264;-68
2021/04/19 00:44:02;;;;;;;32.00;20.70;;;;;;;6.24;78.79;100151.86;232645;1175;116040;-66
2021/04/19 00:49:06;;;;;;;34.73;24.28;;;;;;;6.29;79.27;100151.27;232965;1176;117360;-66
2021/04/19 00:54:12;;;;;;;44.68;28.33;;;;;;;6.25;79.51;100127.02;232512;1176;116856;-66
2021/04/19 00:59:15;;;;;;;51.23;29.15;;;;;;;6.29;79.61;100104.44;232666;1177;117411;-66
2021/04/19 01:04:18;;;;;;;55.38;28.03;;;;;;;6.39;79.38;100094.30;233163;1176;116104;-66
2021/04/19 01:09:21;;;;;;;50.20;26.97;;;;;;;6.48;80.20;100084.33;232541;1174;137893;-66
2021/04/19 01:14:24;;;;;;;53.85;27.50;;;;;;;6.60;79.81;100076.63;233114;1175;116801;-66
2021/04/19 01:19:28;;;;;;;44.00;26.03;;;;;;;6.60;79.69;100089.87;232435;1174;115853;-66
2021/04/19 01:24:32;;;;;;;52.90;30.50;;;;;;;6.57;80.08;100053.19;233866;1175;115452;-65
2021/04/19 01:29:35;;;;;;;47.70;27.85;;;;;;;6.62;80.06;100058.70;233799;1176;115226;-66
2021/04/19 01:34:38;;;;;;;47.33;29.48;;;;;;;6.65;80.12;100037.92;232807;1175;115500;-67
2021/04/19 01:39:43;;;;;;;49.23;28.07;;;;;;;6.71;80.27;100021.23;233882;1174;115942;-66
2021/04/19 01:44:47;;;;;;;57.03;31.43;;;;;;;6.81;80.19;100019.98;232977;1174;116075;-66
2021/04/19 01:49:52;;;;;;;56.13;28.63;;;;;;;6.84;80.58;100012.45;233553;1175;116544;-67
2021/04/19 01:54:55;;;;;;;58.10;30.40;;;;;;;6.80;80.30;100013.88;235110;1174;115614;-67
2021/04/19 02:00:00;;;;;;;54.98;27.50;;;;;;;6.88;79.83;100011.03;235060;1171;115816;-68
2021/04/19 02:05:11;;;;;;;55.98;30.30;;;;;;;6.89;79.76;100004.71;234398;1176;115968;-67
2021/04/19 02:10:26;;;;;;;54.67;28.23;;;;;;;6.91;80.15;100015.92;232837;1174;115361;-66
2021/04/19 02:15:48;;;;;;;50.93;26.10;;;;;;;6.95;79.92;100038.36;233732;1175;115478;-68
2021/04/19 02:21:01;;;;;;;48.43;28.90;;;;;;;6.79;79.44;100061.77;232895;1168;115994;-68
2021/04/19 02:26:18;;;;;;;50.97;27.37;;;;;;;6.71;79.76;100058.31;233377;1175;115642;-68
2021/04/19 02:31:27;;;;;;;48.75;26.28;;;;;;;6.82;80.20;100054.23;233001;1175;116647;-68
2021/04/19 02:36:32;;;;;;;44.40;25.40;;;;;;;6.80;79.93;100080.11;233070;1175;116210;-68
2021/04/19 02:41:36;;;;;;;46.27;26.37;;;;;;;6.83;80.41;100077.06;232613;1175;116203;-67
2021/04/19 02:46:41;;;;;;;46.60;27.30;;;;;;;6.90;79.69;100083.20;232656;1176;115769;-67
2021/04/19 02:51:44;;;;;;;43.58;28.40;;;;;;;6.93;80.75;100077.49;232617;1176;115934;-68
2021/04/19 02:56:50;;;;;;;49.33;28.83;;;;;;;7.00;80.72;100080.97;232366;1175;116489;-69
2021/04/19 03:02:07;;;;;;;50.98;28.30;;;;;;;7.13;80.58;100079.33;232566;1176;116234;-69
2021/04/19 03:07:13;;;;;;;47.58;27.30;;;;;;;7.17;80.33;100075.25;232928;1174;116855;-71
2021/04/19 03:12:22;;;;;;;47.77;27.43;;;;;;;7.17;80.55;100070.77;232644;1176;116738;-71
2021/04/19 03:17:30;;;;;;;46.73;26.95;;;;;;;7.23;80.48;100064.66;232256;1177;116389;-69
2021/04/19 03:22:41;;;;;;;48.68;27.83;;;;;;;7.29;80.07;100060.38;233456;1175;117461;-68
2021/04/19 03:27:50;;;;;;;43.95;25.20;;;;;;;7.24;80.97;100062.82;232326;1175;116368;-67
2021/04/19 03:32:57;;;;;;;46.80;26.15;;;;;;;7.20;80.54;100049.16;232664;1174;117417;-69
2021/04/19 03:38:03;;;;;;;46.23;26.73;;;;;;;7.21;80.32;100042.02;232530;1174;116031;-69
2021/04/19 03:43:13;;;;;;;43.73;28.08;;;;;;;7.16;80.21;100041.80;232626;1176;115905;-70
2021/04/19 03:48:20;;;;;;;45.20;25.67;;;;;;;7.24;80.56;100036.30;233934;1170;115262;-69
2021/04/19 03:53:27;;;;;;;52.18;30.58;;;;;;;7.25;80.46;100022.02;235041;1171;114958;-65
2021/04/19 03:58:33;;;;;;;49.95;29.03;;;;;;;7.34;80.67;100042.80;235083;1175;115928;-65
2021/04/19 04:03:40;;;;;;;42.93;26.17;;;;;;;7.57;80.25;100054.82;234407;1175;115352;-65
2021/04/19 04:08:44;;;;;;;44.70;27.25;;;;;;;7.67;79.42;100056.00;233240;1175;115655;-66
2021/04/19 04:13:47;;;;;;;41.50;24.05;;;;;;;7.71;79.64;100054.56;233188;1176;115297;-68
2021/04/19 04:18:50;;;;;;;44.40;25.95;;;;;;;7.81;79.65;100048.83;233382;1176;116563;-69
2021/04/19 04:23:53;;;;;;;45.97;27.17;;;;;;;7.89;79.46;100055.76;232470;1175;115856;-68
2021/04/19 04:28:56;;;;;;;42.48;26.48;;;;;;;7.91;78.84;100056.37;232718;1175;115648;-69
2021/04/19 04:34:00;;;;;;;45.70;25.10;;;;;;;7.96;78.72;100061.84;232536;1175;115776;-68
2021/04/19 04:39:03;;;;;;;49.95;26.13;;;;;;;8.06;78.65;100047.11;232535;1175;115822;-69
2021/04/19 04:44:09;;;;;;;57.68;30.28;;;;;;;8.20;79.16;100062.99;232500;1176;116144;-69
2021/04/19 04:49:15;;;;;;;;;;;;;;;8.40;78.70;100048.61;232508;1176;115718;-68
2021/04/19 04:54:21;;;;;;;55.68;27.38;;;;;;;8.46;77.89;100046.95;233279;1175;103075;-69
2021/04/19 04:59:26;;;;;;;50.78;28.70;;;;;;;8.57;78.35;100056.06;233134;1175;115125;-66
2021/04/19 05:04:32;;;;;;;50.60;27.50;;;;;;;8.76;79.25;100047.98;232551;1175;116483;-69
2021/04/19 05:09:37;;;;;;;;;;;;;;;8.95;78.63;100054.17;233737;1174;116397;-69
2021/04/19 05:14:41;;;;;;;47.55;27.80;;;;;;;9.20;78.21;100056.02;233058;1174;103180;-69
2021/04/19 05:19:44;;;;;;;42.93;26.73;;;;;;;9.44;78.04;100060.52;232777;1175;115402;-67
2021/04/19 05:24:51;;;;;;;45.95;25.70;;;;;;;10.49;76.48;100066.49;233231;1176;115510;-69
2021/04/19 05:29:54;;;;;;;37.85;24.03;;;;;;;11.34;76.52;100058.20;232922;1174;116379;-67
2021/04/19 05:34:57;;;;;;;38.77;23.47;;;;;;;11.45;75.73;100060.88;232573;1174;115690;-69
2021/04/19 05:40:07;;;;;;;46.28;27.48;;;;;;;12.18;75.27;100062.20;233616;1171;116249;-67
2021/04/19 05:45:16;;;;;;;41.60;27.53;;;;;;;12.00;75.00;100060.49;234512;1174;119956;-66
2021/04/19 05:50:22;;;;;;;25.97;17.13;;;;;;;11.84;74.93;100058.56;233934;1174;116589;-69
2021/04/19 05:55:29;;;;;;;19.83;12.03;;;;;;;11.69;74.71;100052.85;233697;1174;117571;-66
2021/04/19 06:00:42;;;;;;;22.47;14.87;;;;;;;11.63;74.20;100056.45;234717;1174;115427;-68
2021/04/19 06:06:13;;;;;;;17.80;13.40;;;;;;;11.53;74.47;100057.06;234277;1175;116753;-67
2021/04/19 06:11:24;;;;;;;15.77;11.77;;;;;;;11.46;73.91;100057.17;232872;1176;116354;-67
2021/04/19 06:16:29;;;;;;;11.90;8.25;;;;;;;11.48;74.07;100062.28;232672;1174;117435;-67
2021/04/19 06:21:34;;;;;;;9.95;8.98;;;;;;;11.44;74.16;100055.78;232440;1176;117380;-68
2021/04/19 06:26:39;;;;;;;7.83;7.03;;;;;;;11.50;74.45;100060.19;233205;1176;116092;-68
2021/04/19 06:31:48;;;;;;;9.78;8.43;;;;;;;11.51;73.48;100064.48;232217;1176;117316;-67
2021/04/19 06:36:53;;;;;;;8.03;6.50;;;;;;;11.59;73.56;100080.16;232764;1176;116204;-67
2021/04/19 06:41:56;;;;;;;11.95;9.33;;;;;;;11.73;73.49;100070.03;232862;1176;117274;-69
2021/04/19 06:47:00;;;;;;;14.70;9.75;;;;;;;11.95;73.51;100073.74;232549;1175;117840;-67
2021/04/19 06:52:04;;;;;;;14.13;10.47;;;;;;;12.97;72.81;100076.48;232678;1174;115649;-68
2021/04/19 06:57:08;;;;;;;12.40;9.70;;;;;;;14.35;70.84;100080.09;232908;1172;116066;-68
2021/04/19 07:02:21;;;;;;;14.45;11.23;;;;;;;14.95;70.51;100070.27;232294;1174;116151;-70
2021/04/19 07:07:31;;;;;;;12.67;10.10;;;;;;;14.72;68.96;100069.50;232383;1174;116685;-65
2021/04/19 07:12:35;;;;;;;12.03;10.53;;;;;;;14.34;69.32;100058.89;232417;1175;118484;-67
2021/04/19 07:17:40;;;;;;;12.90;11.33;;;;;;;14.24;69.35;100070.30;232651;1174;115587;-67
2021/04/19 07:22:43;;;;;;;9.45;7.85;;;;;;;14.50;69.39;100066.06;232389;1175;116097;-67
2021/04/19 07:27:46;;;;;;;11.30;10.05;;;;;;;14.87;69.13;100060.79;233490;1176;116310;-68
2021/04/19 07:32:49;;;;;;;16.40;10.05;;;;;;;15.13;68.53;100053.76;233796;1176;118014;-68
2021/04/19 07:38:01;;;;;;;15.05;11.45;;;;;;;15.35;68.06;100053.64;232962;1174;115896;-68
2021/04/19 07:43:16;;;;;;;13.75;12.35;;;;;;;15.58;67.72;100052.50;232309;1174;116669;-67
2021/04/19 07:48:34;;;;;;;13.60;12.23;;;;;;;15.58;66.99;100052.50;232954;1174;115826;-68
2021/04/19 07:53:38;;;;;;;14.85;11.25;;;;;;;15.48;66.43;100050.52;232469;1174;115957;-67
2021/04/19 07:58:41;;;;;;;12.90;10.83;;;;;;;15.51;66.61;100050.00;234711;1176;116362;-70
2021/04/19 08:03:44;;;;;;;10.80;9.75;;;;;;;15.65;66.39;100051.17;235015;1174;115811;-69
2021/04/19 08:08:48;;;;;;;19.63;13.78;;;;;;;15.75;66.13;100048.55;235049;1175;115258;-70
2021/04/19 08:13:50;;;;;;;15.35;11.93;;;;;;;15.78;66.10;100048.03;234645;1175;116840;-72
2021/04/19 08:19:00;;;;;;;10.48;8.23;;;;;;;15.79;65.42;100038.09;232287;1174;115806;-71
2021/04/19 08:24:18;;;;;;;11.73;10.47;;;;;;;15.74;64.64;100038.88;232403;1175;116060;-69
2021/04/19 08:29:45;;;;;;;8.75;7.90;;;;;;;15.62;64.47;100032.88;233392;1170;115652;-69
2021/04/19 08:34:51;;;;;;;;;;;;;;;15.65;64.20;100037.73;232442;1174;137140;-69
2021/04/19 08:39:59;;;;;;;14.10;11.05;;;;;;;15.72;64.72;100037.52;233797;1174;103050;-68
2021/04/19 08:45:04;;;;;;;7.68;6.90;;;;;;;15.94;63.83;100032.77;232740;1175;116163;-71
2021/04/19 08:50:09;;;;;;;12.18;9.65;;;;;;;15.93;63.93;100017.71;232583;1172;115894;-71
2021/04/19 08:55:14;;;;;;;9.13;5.77;;;;;;;16.00;63.40;100022.85;232314;1174;116057;-72
2021/04/19 09:00:26;;;;;;;9.87;7.97;;;;;;;15.98;62.51;100016.92;233239;1170;115629;-70
2021/04/19 09:05:29;;;;;;;8.55;7.08;;;;;;;16.09;62.47;100027.47;232855;1174;116482;-70
2021/04/19 09:10:56;;;;;;;7.45;6.75;;;;;;;16.15;62.62;100012.16;232360;1174;116075;-69
2021/04/19 09:16:16;;;;;;;8.70;6.70;;;;;;;16.24;62.44;100005.17;232267;1175;115416;-71
2021/04/19 09:21:43;;;;;;;7.55;6.85;;;;;;;16.51;62.39;100011.14;232350;1174;142831;-69
2021/04/19 09:27:01;;;;;;;10.58;8.58;;;;;;;16.67;61.86;100011.20;232290;1177;115843;-71
2021/04/19 09:32:06;;;;;;;7.85;7.05;;;;;;;16.86;61.93;100008.78;233603;1175;115541;-70
2021/04/19 09:37:13;;;;;;;10.43;8.50;;;;;;;17.11;61.40;100006.91;233388;1175;115084;-70
2021/04/19 09:42:18;;;;;;;6.53;5.93;;;;;;;17.11;59.93;100001.52;232367;1175;116151;-74
2021/04/19 09:47:45;;;;;;;9.63;7.37;;;;;;;17.10;60.53;100004.48;233500;1170;116915;-69
2021/04/19 09:52:53;;;;;;;10.45;9.40;;;;;;;17.12;60.01;100005.80;232983;1175;115531;-74
2021/04/19 09:57:59;;;;;;;10.00;9.15;;;;;;;17.19;59.65;100000.14;234992;1174;116227;-72
2021/04/19 10:03:03;;;;;;;10.67;9.30;;;;;;;17.50;59.86;99992.80;234898;1174;116851;-72
2021/04/19 10:08:10;;;;;;;8.70;7.85;;;;;;;17.57;58.62;99989.83;234235;1174;116462;-72
2021/04/19 10:13:13;;;;;;;10.78;8.90;;;;;;;17.15;58.61;99993.68;232940;1174;116146;-72
2021/04/19 10:18:17;;;;;;;9.95;8.58;;;;;;;17.12;59.07;99988.86;234831;1174;115426;-70
2021/04/19 10:23:22;;;;;;;11.03;9.78;;;;;;;17.34;58.60;99988.55;233991;1174;115474;-71
2021/04/19 10:28:33;;;;;;;14.15;10.40;;;;;;;17.44;58.44;99983.11;233375;1174;117121;-69
2021/04/19 10:33:38;;;;;;;8.08;7.13;;;;;;;17.36;57.50;99972.91;232897;1176;117130;-71
2021/04/19 10:38:44;;;;;;;11.97;9.97;;;;;;;17.42;57.51;99969.13;232465;1174;116621;-70
2021/04/19 10:43:53;;;;;;;14.40;11.10;;;;;;;17.59;57.33;99969.61;232411;1176;116422;-69
2021/04/19 10:48:59;;;;;;;9.97;8.97;;;;;;;17.67;56.60;99971.77;232727;1177;117131;-68
2021/04/19 10:54:11;;;;;;;10.78;9.78;;;;;;;17.64;55.52;99969.59;232810;1177;115604;-70
2021/04/19 10:59:14;;;;;;;8.63;7.30;;;;;;;17.78;55.30;99961.73;232401;1176;117093;-70
2021/04/19 11:04:21;;;;;;;9.18;8.08;;;;;;;17.99;55.24;99957.88;232871;1174;115912;-70
2021/04/19 11:09:27;;;;;;;13.55;8.90;;;;;;;18.10;54.59;99969.39;232340;1175;116119;-74
2021/04/19 11:14:35;;;;;;;10.00;8.30;;;;;;;17.97;53.96;99954.64;232477;1176;116710;-76
2021/04/19 11:19:46;;;;;;;16.30;7.60;;;;;;;17.78;54.50;99954.45;233509;1174;116037;-74
2021/04/19 11:24:50;;;;;;;13.45;9.73;;;;;;;18.07;54.00;99951.06;232749;1176;116496;-73
2021/04/19 11:29:53;;;;;;;10.47;7.80;;;;;;;18.18;53.54;99956.13;233936;1176;115733;-70
2021/04/19 11:34:56;;;;;;;14.67;9.47;;;;;;;18.50;53.26;99955.64;232572;1174;116373;-71
2021/04/19 11:39:59;;;;;;;10.03;7.13;;;;;;;18.52;51.26;99947.27;232349;1175;115984;-75
2021/04/19 11:45:06;;;;;;;7.25;6.63;;;;;;;18.63;52.46;99939.93;232194;1174;116568;-77
2021/04/19 11:50:08;;;;;;;;;;;;;;;18.92;51.68;99942.64;232294;1175;116825;-74
2021/04/19 11:55:14;;;;;;;10.18;7.93;;;;;;;18.82;50.25;99947.04;234921;1175;103027;-72
2021/04/19 12:00:19;;;;;;;10.30;9.30;;;;;;;18.25;50.00;99944.22;234995;1175;117287;-68
2021/04/19 12:05:22;;;;;;;7.43;6.68;;;;;;;17.98;50.04;99947.36;235100;1174;116760;-66
2021/04/19 12:10:27;;;;;;;9.13;8.28;;;;;;;17.63;50.67;99941.02;234557;1176;116246;-70
2021/04/19 12:15:30;;;;;;;11.23;9.48;;;;;;;17.16;50.60;99936.84;233347;1175;115838;-71
2021/04/19 12:20:34;;;;;;;7.23;6.53;;;;;;;16.92;51.08;99933.13;234432;1174;115800;-72
2021/04/19 12:25:38;;;;;;;9.78;8.85;;;;;;;17.28;52.09;99924.97;233052;1174;116155;-72
2021/04/19 12:30:42;;;;;;;9.35;8.40;;;;;;;17.64;51.62;99925.65;233407;1174;116153;-69
2021/04/19 12:35:44;;;;;;;13.60;6.80;;;;;;;17.95;50.23;99907.45;233068;1174;116658;-66
2021/04/19 12:40:48;;;;;;;13.10;9.25;;;;;;;18.20;49.88;99909.17;232342;1176;117454;-70
2021/04/19 12:45:52;;;;;;;7.80;6.88;;;;;;;18.39;49.92;99892.02;232850;1175;117409;-75
2021/04/19 12:50:55;;;;;;;10.13;8.03;;;;;;;18.58;49.08;99888.64;233038;1175;115547;-70
2021/04/19 12:55:58;;;;;;;7.43;6.73;;;;;;;18.13;49.15;99885.20;232553;1176;115544;-72
2021/04/19 13:01:02;;;;;;;6.10;5.63;;;;;;;17.68;49.36;99880.91;232773;1175;117882;-73
2021/04/19 13:06:06;;;;;;;11.37;6.70;;;;;;;17.69;49.71;99875.25;232556;1175;117296;-72
2021/04/19 13:11:09;;;;;;;13.17;8.20;;;;;;;17.60;50.01;99879.57;232510;1175;116730;-74
2021/04/19 13:16:12;;;;;;;8.20;7.07;;;;;;;17.48;49.83;99876.38;232612;1176;116619;-71
2021/04/19 13:21:15;;;;;;;4.00;3.60;;;;;;;17.22;48.31;99866.80;232496;1175;116250;-72
2021/04/19 13:26:18;;;;;;;9.90;6.18;;;;;;;17.24;47.95;99864.63;232537;1176;114873;-71
2021/04/19 13:31:24;;;;;;;5.65;5.13;;;;;;;17.47;48.43;99859.41;232528;1170;114896;-71
2021/04/19 13:36:28;;;;;;;5.68;5.05;;;;;;;17.75;48.38;99855.23;233245;1174;115275;-70
2021/04/19 13:41:32;;;;;;;6.40;5.40;;;;;;;17.97;46.77;99856.73;232978;1175;115999;-68
2021/04/19 13:46:36;;;;;;;5.80;5.15;;;;;;;17.58;45.68;99864.75;232536;1176;115877;-69
2021/04/19 13:51:42;;;;;;;5.90;4.80;;;;;;;17.24;45.44;99853.86;232492;1174;115528;-69
2021/04/19 13:56:47;;;;;;;7.07;5.67;;;;;;;17.36;45.37;99848.97;233113;1174;115490;-70
2021/04/19 14:01:50;;;;;;;5.80;5.20;;;;;;;17.48;45.64;99846.73;235032;1170;115394;-67
2021/04/19 14:06:54;;;;;;;6.05;5.40;;;;;;;17.54;45.68;99848.33;234893;1174;115652;-68
2021/04/19 14:11:59;;;;;;;5.70;5.00;;;;;;;17.63;45.50;99845.86;234914;1174;114908;-67
2021/04/19 14:17:03;;;;;;;6.70;4.45;;;;;;;17.58;44.55;99848.58;233331;1175;115780;-68
2021/04/19 14:22:11;;;;;;;7.37;5.63;;;;;;;17.45;44.24;99852.67;233236;1169;116203;-69
2021/04/19 14:27:15;;;;;;;5.70;5.03;;;;;;;17.30;43.90;99845.48;232639;1175;115193;-69
2021/04/19 14:32:19;;;;;;;14.75;6.38;;;;;;;17.28;43.45;99842.26;232394;1175;115570;-69
2021/04/19 14:37:23;;;;;;;5.07;3.13;;;;;;;17.22;43.32;99845.23;232926;1174;115281;-68
2021/04/19 14:42:28;;;;;;;3.90;3.60;;;;;;;17.16;42.75;99842.56;232475;1174;115816;-69
2021/04/19 14:47:31;;;;;;;4.80;4.10;;;;;;;17.04;43.12;99839.39;232410;1174;115852;-68
2021/04/19 14:52:35;;;;;;;6.10;5.47;;;;;;;16.92;42.97;99840.77;233077;1174;114703;-69
2021/04/19 14:57:40;;;;;;;6.68;4.58;;;;;;;16.93;43.35;99842.38;232727;1174;115474;-70
2021/04/19 15:02:43;;;;;;;3.90;3.60;;;;;;;16.84;43.12;99842.13;232358;1174;115400;-71
2021/04/19 15:07:49;;;;;;;3.80;3.35;;;;;;;16.65;42.92;99841.09;233249;1176;114984;-72
2021/04/19 15:12:52;;;;;;;4.25;3.85;;;;;;;16.57;43.14;99830.84;232590;1175;116151;-73
2021/04/19 15:17:55;;;;;;;5.25;4.18;;;;;;;16.52;42.67;99837.04;232306;1175;115864;-71
2021/04/19 15:22:59;;;;;;;4.10;3.80;;;;;;;16.48;42.99;99836.00;232279;1175;115561;-71
2021/04/19 15:28:02;;;;;;;3.35;3.08;;;;;;;16.37;41.96;99845.95;232356;1171;115105;-70
2021/04/19 15:33:26;;;;;;;8.00;5.37;;;;;;;16.22;42.28;99843.25;232412;1175;115045;-71
2021/04/19 15:38:32;;;;;;;6.20;5.53;;;;;;;16.18;42.54;99847.58;233138;1175;116616;-71
2021/04/19 15:43:35;;;;;;;;;;;;;;;16.12;42.76;99836.00;232796;1174;114966;-71
2021/04/19 15:48:39;;;;;;;6.00;5.40;;;;;;;16.02;42.50;99843.25;234071;1174;103389;-71
2021/04/19 15:53:43;;;;;;;6.23;5.20;;;;;;;15.95;42.85;99837.31;232436;1175;116306;-70
2021/04/19 15:58:48;;;;;;;4.60;4.20;;;;;;;15.85;42.91;99838.13;232456;1175;117423;-70
2021/04/19 16:03:52;;;;;;;6.83;5.43;;;;;;;15.73;42.54;99841.06;233089;1175;116304;-73
2021/04/19 16:08:55;;;;;;;8.40;5.28;;;;;;;15.64;42.45;99841.83;232471;1174;116784;-72
2021/04/19 16:13:58;;;;;;;8.10;5.18;;;;;;;15.54;42.39;99841.80;232267;1175;116238;-71
2021/04/19 16:19:02;;;;;;;4.28;3.93;;;;;;;15.41;43.36;99843.89;232480;1176;117624;-72
2021/04/19 16:24:08;;;;;;;7.15;4.60;;;;;;;15.28;44.10;99835.53;233689;1174;116807;-73
2021/04/19 16:29:12;;;;;;;5.25;4.75;;;;;;;15.18;43.05;99832.80;233095;1176;115657;-74
2021/04/19 16:34:18;;;;;;;8.28;5.25;;;;;;;15.10;43.24;99840.28;233443;1177;116795;-70
2021/04/19 16:39:22;;;;;;;4.60;4.20;;;;;;;15.01;43.72;99846.41;232662;1175;116357;-70
2021/04/19 16:44:27;;;;;;;5.65;5.15;;;;;;;14.80;43.61;99840.13;232628;1174;116165;-71
2021/04/19 16:49:32;;;;;;;5.60;4.10;;;;;;;14.66;43.36;99839.80;232438;1176;117552;-70
2021/04/19 16:54:35;;;;;;;7.17;5.40;;;;;;;14.53;44.09;99840.23;232342;1174;115859;-68
2021/04/19 16:59:39;;;;;;;7.50;5.80;;;;;;;14.40;44.04;99844.11;232563;1176;207010;-72
2021/04/19 17:04:43;;;;;;;6.00;5.40;;;;;;;14.23;44.06;99842.66;233067;1176;115983;-70
2021/04/19 17:09:48;;;;;;;6.43;4.90;;;;;;;14.07;44.35;99849.73;233105;1175;116543;-71
2021/04/19 17:14:52;;;;;;;8.55;5.95;;;;;;;13.95;44.09;99852.59;232537;1170;114719;-71
2021/04/19 17:19:56;;;;;;;9.08;6.73;;;;;;;13.82;44.51;99855.67;232489;1174;117602;-72
2021/04/19 17:25:00;;;;;;;7.80;6.43;;;;;;;13.60;44.41;99853.05;233067;1174;114928;-73
2021/04/19 17:30:05;;;;;;;6.43;5.57;;;;;;;13.41;45.07;99851.77;233308;1175;137611;-69
2021/04/19 17:35:09;;;;;;;8.33;6.17;;;;;;;13.18;45.33;99857.35;232718;1167;115531;-69
2021/04/19 17:40:13;;;;;;;8.83;4.23;;;;;;;12.99;46.01;99862.98;233446;1174;115907;-70
2021/04/19 17:45:17;;;;;;;9.78;4.73;;;;;;;12.78;46.05;99863.77;233731;1174;115978;-71
2021/04/19 17:50:20;;;;;;;5.07;4.63;;;;;;;12.63;46.86;99874.23;232489;1171;114838;-70
2021/04/19 17:55:24;;;;;;;7.13;6.30;;;;;;;12.43;47.37;99867.52;233221;1172;116409;-68
2021/04/19 18:00:27;;;;;;;10.00;6.17;;;;;;;12.24;47.82;99874.14;232994;1174;115845;-66
2021/04/19 18:05:30;;;;;;;9.88;5.65;;;;;;;12.03;48.65;99881.02;234078;1175;138264;-65
2021/04/19 18:10:34;;;;;;;7.58;6.08;;;;;;;11.83;48.73;99875.31;235012;1174;118317;-64
2021/04/19 18:15:40;;;;;;;10.65;6.50;;;;;;;11.61;49.32;99885.83;235178;1174;115030;-67
2021/04/19 18:20:45;;;;;;;9.20;5.88;;;;;;;11.40;49.76;99886.45;235025;1175;115317;-65
2021/04/19 18:25:49;;;;;;;9.73;6.85;;;;;;;11.19;50.78;99892.42;235089;1174;115740;-66
2021/04/19 18:30:53;;;;;;;8.33;6.70;;;;;;;11.01;51.45;99896.84;235032;1176;115380;-66
2021/04/19 18:35:57;;;;;;;9.37;6.67;;;;;;;10.83;52.00;99904.16;233948;1176;115514;-68
2021/04/19 18:41:01;;;;;;;10.13;7.03;;;;;;;10.61;52.44;99906.60;233032;1175;116825;-69
2021/04/19 18:46:05;;;;;;;8.57;6.37;;;;;;;10.36;53.40;99912.95;232433;1175;116027;-69
2021/04/19 18:51:09;;;;;;;9.33;6.70;;;;;;;10.08;53.23;99915.39;232602;1176;115444;-68
2021/04/19 18:56:13;;;;;;;10.15;7.20;;;;;;;9.86;54.35;99914.25;233590;1170;115683;-67
2021/04/19 19:01:18;;;;;;;14.15;7.40;;;;;;;9.62;54.89;99916.81;232915;1174;115991;-66
2021/04/19 19:06:25;;;;;;;30.73;11.20;;;;;;;9.42;55.78;99910.92;232648;1175;116020;-65
2021/04/19 19:11:29;;;;;;;12.35;9.30;;;;;;;9.26;56.00;99919.48;233505;1174;116707;-67
2021/04/19 19:16:32;;;;;;;11.07;7.70;;;;;;;9.14;56.94;99910.64;232973;1176;116469;-67
2021/04/19 19:21:36;;;;;;;10.65;7.38;;;;;;;9.00;57.52;99909.95;232407;1174;116086;-67
2021/04/19 19:26:40;;;;;;;22.63;9.35;;;;;;;8.81;58.05;99913.62;233376;1169;116515;-68
2021/04/19 19:31:44;;;;;;;25.90;13.33;;;;;;;8.66;58.30;99912.09;232709;1174;117602;-65
2021/04/19 19:36:47;;;;;;;20.90;10.45;;;;;;;8.47;58.71;99913.09;232490;1174;117297;-68
2021/04/19 19:41:50;;;;;;;35.98;16.38;;;;;;;8.24;58.55;99910.17;233032;1176;115508;-65
2021/04/19 19:46:55;;;;;;;34.88;15.13;;;;;;;8.09;60.28;99902.50;233144;1176;115313;-66
2021/04/19 19:51:59;;;;;;;28.13;14.83;;;;;;;7.96;60.34;99902.56;233499;1174;116358;-71
2021/04/19 19:57:02;;;;;;;32.58;17.15;;;;;;;7.90;60.24;99903.45;232542;1176;116729;-68
2021/04/19 20:02:08;;;;;;;30.00;15.50;;;;;;;7.87;60.88;99901.22;233444;1174;117767;-65
2021/04/19 20:07:11;;;;;;;21.87;13.00;;;;;;;7.87;61.32;99901.22;233739;1170;118220;-65
2021/04/19 20:12:15;;;;;;;18.50;10.10;;;;;;;7.64;61.03;99888.48;233789;1175;114935;-65
2021/04/19 20:17:20;;;;;;;30.37;14.27;;;;;;;7.42;61.93;99890.59;234611;1174;119186;-66
2021/04/19 20:22:25;;;;;;;29.33;14.80;;;;;;;7.32;62.13;99884.95;235031;1174;115882;-70
2021/04/19 20:27:28;;;;;;;21.23;13.80;;;;;;;7.26;62.92;99888.43;234747;1174;114944;-65
2021/04/19 20:32:31;;;;;;;21.33;14.87;;;;;;;7.24;63.43;99879.88;234869;1174;115005;-67
2021/04/19 20:37:36;;;;;;;29.23;14.93;;;;;;;7.13;62.48;99881.32;234504;1170;115298;-68
2021/04/19 20:42:41;;;;;;;18.90;13.48;;;;;;;7.09;63.65;99878.27;233234;1174;116561;-66
2021/04/19 20:47:44;;;;;;;23.33;13.60;;;;;;;7.08;64.17;99883.78;232595;1174;115198;-66
2021/04/19 20:52:49;;;;;;;20.67;12.50;;;;;;;6.93;64.44;99880.56;233902;1176;115680;-65
2021/04/19 20:57:53;;;;;;;26.00;16.33;;;;;;;6.69;64.07;99882.86;233210;1174;115212;-66
2021/04/19 21:02:57;;;;;;;37.65;16.35;;;;;;;6.55;64.99;99877.77;233032;1174;115645;-69
2021/04/19 21:08:01;;;;;;;31.43;17.57;;;;;;;6.50;65.14;99878.38;232306;1174;115750;-65
2021/04/19 21:13:06;;;;;;;32.65;18.00;;;;;;;6.51;64.98;99877.36;232607;1176;116846;-64
2021/04/19 21:18:10;;;;;;;37.45;18.03;;;;;;;6.45;66.12;99875.52;232681;1176;116402;-64
2021/04/19 21:23:17;;;;;;;31.78;18.05;;;;;;;6.27;65.75;99872.69;232451;1176;115140;-66
2021/04/19 21:28:20;;;;;;;32.35;17.28;;;;;;;6.06;65.88;99874.52;233107;1176;115960;-66
2021/04/19 21:33:24;;;;;;;38.50;19.25;;;;;;;5.86;66.26;99881.55;232432;1175;115970;-64
2021/04/19 21:38:28;;;;;;;39.83;23.38;;;;;;;5.73;66.81;99874.42;232682;1175;115898;-66
2021/04/19 21:43:34;;;;;;;48.08;26.23;;;;;;;5.68;67.10;99868.91;233165;1174;115509;-64
2021/04/19 21:48:38;;;;;;;57.00;26.15;;;;;;;5.64;67.04;99865.03;232882;1175;115770;-65
2021/04/19 21:53:42;;;;;;;58.23;27.80;;;;;;;5.59;67.04;99872.73;233093;1175;115840;-66
2021/04/19 21:58:46;;;;;;;49.45;25.68;;;;;;;5.54;67.71;99863.77;233118;1174;117605;-64
2021/04/19 22:03:51;;;;;;;43.37;18.93;;;;;;;5.50;67.97;99865.20;233196;1174;114933;-68
2021/04/19 22:08:55;;;;;;;36.03;20.33;;;;;;;5.55;67.97;99866.21;232414;1174;115726;-67
2021/04/19 22:14:00;;;;;;;38.15;22.30;;;;;;;5.46;67.93;99864.78;234971;1174;114964;-66
2021/04/19 22:19:07;;;;;;;35.70;22.35;;;;;;;5.43;68.23;99867.81;234969;1174;118396;-65
2021/04/19 22:24:12;;;;;;;35.13;20.87;;;;;;;5.38;68.27;99860.48;235071;1176;115378;-65
2021/04/19 22:29:16;;;;;;;26.03;19.53;;;;;;;5.37;68.88;99863.31;235081;1174;116109;-65
2021/04/19 22:34:21;;;;;;;26.85;17.38;;;;;;;5.35;68.84;99865.34;235065;1174;114911;-64
2021/04/19 22:39:32;;;;;;;28.20;17.05;;;;;;;5.27;68.44;99861.03;233878;1174;115732;-64
2021/04/19 22:44:36;;;;;;;31.80;18.17;;;;;;;5.15;68.54;99859.16;233507;1175;115547;-67
2021/04/19 22:49:39;;;;;;;30.37;19.67;;;;;;;5.02;69.02;99863.36;232303;1175;117762;-65
2021/04/19 22:54:44;;;;;;;36.20;18.08;;;;;;;4.91;69.48;99858.62;233311;1174;115633;-65
2021/04/19 22:59:51;;;;;;;16.13;10.88;;;;;;;4.71;69.05;99853.23;232384;1176;116479;-67
2021/04/19 23:04:55;;;;;;;33.87;20.53;;;;;;;4.59;69.81;99853.95;233058;1176;116006;-65
2021/04/19 23:09:59;;;;;;;26.15;18.70;;;;;;;4.59;70.10;99861.88;233320;1174;116690;-67